Time;durP1;ratioP1;P1;durP2;ratioP2;P2;SDS_P1;SDS_P2;PMS_P1;PMS_P2;Temp;Humidity;BMP_temperature;BMP_pressure;BME280_temperature;BME280_humidity;BME280_pressure;Samples;Min_cycle;Max_cycle;Signal;HPM_P1;HPM_P2
2021/09/20 00:04:50;;;;;;;0.10;0.10;;;;;;;;;;10429108;28;20526;-68
2021/09/20 00:09:54;;;;;;;0.10;0.10;;;;;;;;;;10432683;28;20056;-68
2021/09/20 00:14:58;;;;;;;0.10;0.10;;;;;;;;;;10417395;28;20041;-67
2021/09/20 00:20:02;;;;;;;0.10;0.10;;;;;;;;;;10413889;28;20057;-68
2021/09/20 00:25:07;;;;;;;0.10;0.10;;;;;;;;;;10405842;28;20049;-68
2021/09/20 00:30:12;;;;;;;0.10;0.10;;;;;;;;;;10415430;28;20064;-68
2021/09/20 00:35:16;;;;;;;0.00;0.00;;;;;;;;;;10413100;28;20051;-68
2021/09/20 00:40:19;;;;;;;0.10;0.10;;;;;;;;;;10411990;28;20044;-68
2021/09/20 00:45:25;;;;;;;0.10;0.10;;;;;;;;;;10420308;28;20053;-68
2021/09/20 00:50:29;;;;;;;0.00;0.00;;;;;;;;;;10422766;28;20132;-68
2021/09/20 00:55:34;;;;;;;0.10;0.10;;;;;;;;;;10430440;28;20128;-67
2021/09/20 01:00:39;;;;;;;0.10;0.10;;;;;;;;;;10432128;28;20045;-67
2021/09/20 01:05:42;;;;;;;0.00;0.00;;;;;;;;;;10428400;28;20723;-68
2021/09/20 01:10:46;;;;;;;0.10;0.10;;;;;;;;;;10423803;28;20080;-67
2021/09/20 01:15:52;;;;;;;0.10;0.10;;;;;;;;;;10430538;28;20052;-68
2021/09/20 01:20:56;;;;;;;0.00;0.00;;;;;;;;;;10428071;28;20041;-68
2021/09/20 01:26:00;;;;;;;0.05;0.05;;;;;;;;;;10446819;28;20147;-68
2021/09/20 01:31:04;;;;;;;0.00;0.00;;;;;;;;;;10431910;28;20469;-68
2021/09/20 01:36:07;;;;;;;0.00;0.00;;;;;;;;;;10436101;28;20044;-68
2021/09/20 01:41:12;;;;;;;0.10;0.10;;;;;;;;;;10433147;28;20136;-68
2021/09/20 01:46:19;;;;;;;0.05;0.05;;;;;;;;;;10431141;28;20067;-68
2021/09/20 01:51:23;;;;;;;0.10;0.10;;;;;;;;;;10432723;28;20040;-68
2021/09/20 01:56:29;;;;;;;0.00;0.00;;;;;;;;;;10430389;28;20059;-68
2021/09/20 02:01:32;;;;;;;0.05;0.05;;;;;;;;;;10419164;28;20103;-68
2021/09/20 02:06:36;;;;;;;0.10;0.10;;;;;;;;;;10408874;28;20103;-68
2021/09/20 02:11:41;;;;;;;0.00;0.00;;;;;;;;;;10416702;28;20049;-68
2021/09/20 02:16:46;;;;;;;0.03;0.03;;;;;;;;;;10431010;28;20048;-68
2021/09/20 02:21:50;;;;;;;0.08;0.08;;;;;;;;;;10414992;28;20041;-68
2021/09/20 02:26:55;;;;;;;0.10;0.10;;;;;;;;;;10418432;28;20060;-68
2021/09/20 02:31:59;;;;;;;0.10;0.10;;;;;;;;;;10408248;28;20056;-68
2021/09/20 02:37:02;;;;;;;0.00;0.00;;;;;;;;;;10419267;28;20094;-68
2021/09/20 02:42:07;;;;;;;0.10;0.10;;;;;;;;;;10432277;28;20037;-68
2021/09/20 02:47:11;;;;;;;0.03;0.03;;;;;;;;;;10426478;28;20045;-68
2021/09/20 02:52:15;;;;;;;0.00;0.00;;;;;;;;;;10426172;28;20045;-68
2021/09/20 02:57:20;;;;;;;0.10;0.10;;;;;;;;;;10424165;28;20049;-68
2021/09/20 03:02:25;;;;;;;0.00;0.00;;;;;;;;;;10419486;28;20041;-68
2021/09/20 03:07:29;;;;;;;0.00;0.00;;;;;;;;;;10425067;28;20077;-68
2021/09/20 03:12:33;;;;;;;0.10;0.10;;;;;;;;;;10424779;28;20057;-68
2021/09/20 03:17:37;;;;;;;0.00;0.00;;;;;;;;;;10423503;28;20045;-68
2021/09/20 03:22:41;;;;;;;0.03;0.03;;;;;;;;;;10427154;28;20522;-68
2021/09/20 03:27:46;;;;;;;0.10;0.10;;;;;;;;;;10424880;28;20051;-68
2021/09/20 03:32:49;;;;;;;0.10;0.10;;;;;;;;;;10430167;28;20056;-68
2021/09/20 03:37:53;;;;;;;0.00;0.00;;;;;;;;;;10422986;28;20037;-68
2021/09/20 03:42:59;;;;;;;0.10;0.10;;;;;;;;;;10431336;28;20111;-68
2021/09/20 03:48:05;;;;;;;0.10;0.10;;;;;;;;;;10423145;28;20040;-68
2021/09/20 03:53:09;;;;;;;0.00;0.00;;;;;;;;;;10421767;28;20067;-68
2021/09/20 03:58:15;;;;;;;0.00;0.00;;;;;;;;;;10421986;28;20046;-68
2021/09/20 04:03:20;;;;;;;0.08;0.08;;;;;;;;;;10421278;28;20051;-68
2021/09/20 04:08:27;;;;;;;0.08;0.08;;;;;;;;;;10426294;28;20119;-68
2021/09/20 04:13:32;;;;;;;0.00;0.00;;;;;;;;;;10423897;28;20048;-68
2021/09/20 04:18:35;;;;;;;0.10;0.10;;;;;;;;;;10447571;28;20119;-68
2021/09/20 04:23:40;;;;;;;0.00;0.00;;;;;;;;;;10428406;28;20037;-68
2021/09/20 04:28:45;;;;;;;0.10;0.10;;;;;;;;;;10424990;28;20073;-67
2021/09/20 04:33:49;;;;;;;0.10;0.10;;;;;;;;;;10421889;28;20115;-68
2021/09/20 04:38:52;;;;;;;0.03;0.03;;;;;;;;;;10423804;28;20048;-67
2021/09/20 04:43:58;;;;;;;0.10;0.10;;;;;;;;;;10424260;28;20055;-68
2021/09/20 04:49:01;;;;;;;0.10;0.10;;;;;;;;;;10425028;28;20046;-69
2021/09/20 04:54:04;;;;;;;0.08;0.08;;;;;;;;;;10425527;28;20137;-68
2021/09/20 04:59:10;;;;;;;0.10;0.10;;;;;;;;;;10425914;28;20044;-68
2021/09/20 05:04:14;;;;;;;0.10;0.10;;;;;;;;;;10421329;28;20484;-68
2021/09/20 05:09:17;;;;;;;0.10;0.10;;;;;;;;;;10424755;28;20128;-68
2021/09/20 05:14:23;;;;;;;0.00;0.00;;;;;;;;;;10430058;28;20049;-68
2021/09/20 05:19:28;;;;;;;0.00;0.00;;;;;;;;;;10424896;28;20033;-68
2021/09/20 05:24:33;;;;;;;0.03;0.03;;;;;;;;;;10423890;28;20391;-68
2021/09/20 05:29:38;;;;;;;0.10;0.10;;;;;;;;;;10415894;28;20109;-67
2021/09/20 05:34:43;;;;;;;0.10;0.10;;;;;;;;;;10419858;28;20033;-67
2021/09/20 05:39:47;;;;;;;0.00;0.00;;;;;;;;;;10438860;28;20160;-68
2021/09/20 05:44:52;;;;;;;0.10;0.10;;;;;;;;;;10416106;28;20029;-67
2021/09/20 05:49:55;;;;;;;0.00;0.00;;;;;;;;;;10425159;28;20045;-68
2021/09/20 05:54:58;;;;;;;0.10;0.10;;;;;;;;;;10418982;28;20060;-68
2021/09/20 06:00:02;;;;;;;0.10;0.10;;;;;;;;;;10429302;28;20107;-68
2021/09/20 06:05:14;;;;;;;0.20;0.10;;;;;;;;;;10424694;28;20450;-68
2021/09/20 06:10:18;;;;;;;0.00;0.00;;;;;;;;;;10425304;28;20072;-68
2021/09/20 06:15:24;;;;;;;0.03;0.03;;;;;;;;;;10424934;28;20037;-67
2021/09/20 06:20:28;;;;;;;0.10;0.10;;;;;;;;;;10426044;28;20045;-67
2021/09/20 06:25:32;;;;;;;0.10;0.10;;;;;;;;;;10416415;28;20118;-67
2021/09/20 06:30:40;;;;;;;0.00;0.00;;;;;;;;;;10422982;28;20438;-67
2021/09/20 06:35:45;;;;;;;0.10;0.10;;;;;;;;;;10423717;28;20053;-67
2021/09/20 06:40:49;;;;;;;0.32;0.10;;;;;;;;;;10428604;28;20051;-67
2021/09/20 06:45:54;;;;;;;0.10;0.10;;;;;;;;;;10427017;28;20087;-68
2021/09/20 06:50:57;;;;;;;0.00;0.00;;;;;;;;;;10427080;28;20056;-66
2021/09/20 06:56:00;;;;;;;0.10;0.10;;;;;;;;;;10423299;28;20051;-66
2021/09/20 07:01:05;;;;;;;0.00;0.00;;;;;;;;;;10422631;28;20407;-66
2021/09/20 07:06:09;;;;;;;0.03;0.03;;;;;;;;;;10428084;28;20072;-66
2021/09/20 07:11:12;;;;;;;0.10;0.10;;;;;;;;;;10428309;28;20115;-66
2021/09/20 07:16:16;;;;;;;0.00;0.00;;;;;;;;;;10417962;28;20045;-66
2021/09/20 07:21:22;;;;;;;0.00;0.00;;;;;;;;;;10413675;28;20045;-66
2021/09/20 07:26:26;;;;;;;0.00;0.00;;;;;;;;;;10410259;28;21009;-66
2021/09/20 07:31:31;;;;;;;0.00;0.00;;;;;;;;;;10416781;28;20050;-66
2021/09/20 07:36:36;;;;;;;0.00;0.00;;;;;;;;;;10411694;28;20048;-66
2021/09/20 07:41:38;;;;;;;0.00;0.00;;;;;;;;;;10414909;28;20044;-66
2021/09/20 07:46:43;;;;;;;0.10;0.10;;;;;;;;;;10413530;28;20034;-66
2021/09/20 07:51:46;;;;;;;0.00;0.00;;;;;;;;;;10414591;28;20473;-66
2021/09/20 07:56:49;;;;;;;0.05;0.05;;;;;;;;;;10425471;28;20044;-66
2021/09/20 08:01:53;;;;;;;0.00;0.00;;;;;;;;;;10418218;28;20079;-64
2021/09/20 08:06:56;;;;;;;0.00;0.00;;;;;;;;;;10415176;28;20045;-65
2021/09/20 08:11:59;;;;;;;0.10;0.10;;;;;;;;;;10412460;28;20813;-66
2021/09/20 08:17:06;;;;;;;0.00;0.00;;;;;;;;;;10410295;28;20041;-65
2021/09/20 08:22:10;;;;;;;0.00;0.00;;;;;;;;;;10421763;28;20052;-65
2021/09/20 08:27:12;;;;;;;0.10;0.10;;;;;;;;;;10413402;28;20049;-65
2021/09/20 08:32:17;;;;;;;0.10;0.10;;;;;;;;;;10419460;28;20485;-65
2021/09/20 08:37:19;;;;;;;0.10;0.10;;;;;;;;;;10419509;28;20063;-66
2021/09/20 08:42:23;;;;;;;0.08;0.08;;;;;;;;;;10416646;28;20056;-66
2021/09/20 08:47:27;;;;;;;0.00;0.00;;;;;;;;;;10415519;28;20041;-65
2021/09/20 08:52:30;;;;;;;0.00;0.00;;;;;;;;;;10420299;28;20816;-66
2021/09/20 08:57:33;;;;;;;0.13;0.10;;;;;;;;;;10420024;28;20151;-66
2021/09/20 09:02:37;;;;;;;0.10;0.10;;;;;;;;;;10408211;28;20059;-66
2021/09/20 09:07:41;;;;;;;0.00;0.00;;;;;;;;;;10397566;28;20755;-65
2021/09/20 09:12:45;;;;;;;0.00;0.00;;;;;;;;;;10411779;28;20056;-65
2021/09/20 09:17:50;;;;;;;0.10;0.10;;;;;;;;;;10390743;28;20049;-65
2021/09/20 09:22:53;;;;;;;0.00;0.00;;;;;;;;;;10418642;28;20206;-65
2021/09/20 09:27:59;;;;;;;0.03;0.03;;;;;;;;;;10411144;28;20052;-65
2021/09/20 09:33:08;;;;;;;0.05;0.05;;;;;;;;;;10416757;28;20162;-65
2021/09/20 09:38:11;;;;;;;0.00;0.00;;;;;;;;;;10431630;28;20049;-65
2021/09/20 09:43:21;;;;;;;0.00;0.00;;;;;;;;;;10416783;28;20400;-65
2021/09/20 09:48:26;;;;;;;0.00;0.00;;;;;;;;;;10404625;28;20063;-65
2021/09/20 09:53:30;;;;;;;0.00;0.00;;;;;;;;;;10414720;28;20045;-66
2021/09/20 09:58:33;;;;;;;0.00;0.00;;;;;;;;;;10408844;28;20049;-65
2021/09/20 10:03:45;;;;;;;0.00;0.00;;;;;;;;;;10419643;28;20094;-65
2021/09/20 10:08:49;;;;;;;0.00;0.00;;;;;;;;;;10406092;28;20061;-66
2021/09/20 10:13:52;;;;;;;0.00;0.00;;;;;;;;;;10415535;28;20144;-63
2021/09/20 10:18:58;;;;;;;0.00;0.00;;;;;;;;;;10417473;28;20045;-65
2021/09/20 10:24:02;;;;;;;0.00;0.00;;;;;;;;;;10417062;28;20037;-64
2021/09/20 10:29:06;;;;;;;0.00;0.00;;;;;;;;;;10410752;28;20045;-64
2021/09/20 10:34:26;;;;;;;0.00;0.00;;;;;;;;;;10419391;28;20035;-64
2021/09/20 10:40:01;;;;;;;0.00;0.00;;;;;;;;;;10418899;28;20049;-65
2021/09/20 10:45:03;;;;;;;;;;;;;;;;;;10378256;28;20045;-64
2021/09/20 10:50:08;;;;;;;0.00;0.00;;;;;;;;;;10397330;28;19921;-62
2021/09/20 10:55:10;;;;;;;0.00;0.00;;;;;;;;;;10416708;28;20041;-63
2021/09/20 11:00:23;;;;;;;0.00;0.00;;;;;;;;;;10399932;28;20053;-61
2021/09/20 11:05:27;;;;;;;0.00;0.00;;;;;;;;;;10390645;28;20053;-63
2021/09/20 11:10:31;;;;;;;0.00;0.00;;;;;;;;;;10412900;28;20067;-64
2021/09/20 11:15:39;;;;;;;0.00;0.00;;;;;;;;;;10412275;28;20048;-62
2021/09/20 11:20:44;;;;;;;0.00;0.00;;;;;;;;;;10392969;28;20772;-63
2021/09/20 11:26:08;;;;;;;0.00;0.00;;;;;;;;;;10419201;28;20053;-63
2021/09/20 11:37:47;;;;;;;0.00;0.00;;;;;;;;;;10417294;28;20032;-63
2021/09/20 11:42:51;;;;;;;0.00;0.00;;;;;;;;;;10418274;28;20056;-63
2021/09/20 11:47:54;;;;;;;0.00;0.00;;;;;;;;;;10421871;28;20048;-61
2021/09/20 11:52:59;;;;;;;0.00;0.00;;;;;;;;;;10416014;28;20052;-61
2021/09/20 11:58:03;;;;;;;0.03;0.03;;;;;;;;;;10424696;28;20396;-61
2021/09/20 12:03:08;;;;;;;0.10;0.10;;;;;;;;;;10414521;28;20498;-62
2021/09/20 12:08:14;;;;;;;0.10;0.10;;;;;;;;;;10425209;28;20419;-61
2021/09/20 12:13:18;;;;;;;0.10;0.10;;;;;;;;;;10428062;28;20057;-61
2021/09/20 12:18:23;;;;;;;0.00;0.00;;;;;;;;;;10432472;28;20041;-61
2021/09/20 12:23:32;;;;;;;0.00;0.00;;;;;;;;;;10432438;28;20041;-62
2021/09/20 12:28:37;;;;;;;0.00;0.00;;;;;;;;;;10434009;28;20068;-62
2021/09/20 12:33:50;;;;;;;0.00;0.00;;;;;;;;;;10427051;28;20384;-62
2021/09/20 12:39:03;;;;;;;0.00;0.00;;;;;;;;;;10412391;28;20046;-62
2021/09/20 12:44:06;;;;;;;0.00;0.00;;;;;;;;;;10418752;28;20500;-61
2021/09/20 12:49:10;;;;;;;0.00;0.00;;;;;;;;;;10423155;28;20049;-62
2021/09/20 12:54:19;;;;;;;0.25;0.10;;;;;;;;;;10426137;28;20120;-62
2021/09/20 12:59:25;;;;;;;0.00;0.00;;;;;;;;;;10420770;28;20052;-62
2021/09/20 13:04:31;;;;;;;0.00;0.00;;;;;;;;;;10438369;28;20124;-62
2021/09/20 13:09:40;;;;;;;0.00;0.00;;;;;;;;;;10429846;28;20054;-62
2021/09/20 13:14:49;;;;;;;0.00;0.00;;;;;;;;;;10425471;28;20141;-63
2021/09/20 13:20:01;;;;;;;0.00;0.00;;;;;;;;;;10424992;28;20044;-61
2021/09/20 13:25:23;;;;;;;0.08;0.00;;;;;;;;;;10413718;28;20395;-62
2021/09/20 13:30:26;;;;;;;;;;;;;;;;;;10418687;28;20426;-62
2021/09/20 13:35:33;;;;;;;0.00;0.00;;;;;;;;;;10430302;28;19935;-61
2021/09/20 13:40:36;;;;;;;0.00;0.00;;;;;;;;;;10427264;28;20041;-63
2021/09/20 13:45:38;;;;;;;0.00;0.00;;;;;;;;;;10418175;28;20044;-63
2021/09/20 13:50:44;;;;;;;0.10;0.10;;;;;;;;;;10428642;28;20072;-62
2021/09/20 13:55:47;;;;;;;0.00;0.00;;;;;;;;;;10429133;28;20041;-62
2021/09/20 14:00:50;;;;;;;0.00;0.00;;;;;;;;;;10426419;28;20049;-62
2021/09/20 14:05:55;;;;;;;0.10;0.10;;;;;;;;;;10428715;28;20051;-62
2021/09/20 14:10:59;;;;;;;0.00;0.00;;;;;;;;;;10429305;28;20503;-62
2021/09/20 14:16:01;;;;;;;0.00;0.00;;;;;;;;;;10426731;28;20055;-63
2021/09/20 14:21:06;;;;;;;0.00;0.00;;;;;;;;;;10427617;28;20044;-63
2021/09/20 14:26:08;;;;;;;0.10;0.10;;;;;;;;;;10409240;28;20479;-63
2021/09/20 14:31:11;;;;;;;0.00;0.00;;;;;;;;;;10423080;28;20045;-63
2021/09/20 14:36:16;;;;;;;0.00;0.00;;;;;;;;;;10424320;28;21013;-61
2021/09/20 14:41:19;;;;;;;0.00;0.00;;;;;;;;;;10414178;28;20041;-61
2021/09/20 14:46:22;;;;;;;0.00;0.00;;;;;;;;;;10412768;28;20045;-63
2021/09/20 14:51:26;;;;;;;0.00;0.00;;;;;;;;;;10419681;28;20569;-62
2021/09/20 14:56:29;;;;;;;0.00;0.00;;;;;;;;;;10414306;28;20040;-63
2021/09/20 15:01:35;;;;;;;0.00;0.00;;;;;;;;;;10412247;28;20707;-62
2021/09/20 15:06:40;;;;;;;0.00;0.00;;;;;;;;;;10414510;28;20124;-62
2021/09/20 15:11:42;;;;;;;0.00;0.00;;;;;;;;;;10423242;28;20514;-62
2021/09/20 15:16:45;;;;;;;0.00;0.00;;;;;;;;;;10416794;28;20070;-62
2021/09/20 15:21:50;;;;;;;0.00;0.00;;;;;;;;;;10420281;28;20057;-62
2021/09/20 15:26:53;;;;;;;0.10;0.10;;;;;;;;;;10424090;28;20053;-63
2021/09/20 15:31:56;;;;;;;0.10;0.10;;;;;;;;;;10420788;28;20477;-62
2021/09/20 15:37:00;;;;;;;0.05;0.05;;;;;;;;;;10422231;28;20049;-63
2021/09/20 15:42:03;;;;;;;0.00;0.00;;;;;;;;;;10435086;28;20208;-63
2021/09/20 15:47:07;;;;;;;0.00;0.00;;;;;;;;;;10426083;28;20048;-63
2021/09/20 15:52:11;;;;;;;0.00;0.00;;;;;;;;;;10436212;28;20518;-63
2021/09/20 15:57:14;;;;;;;0.13;0.10;;;;;;;;;;10430356;28;20052;-62
2021/09/20 16:02:17;;;;;;;0.00;0.00;;;;;;;;;;10431964;28;20055;-61
2021/09/20 16:07:21;;;;;;;0.10;0.10;;;;;;;;;;10412887;28;20044;-63
2021/09/20 16:12:27;;;;;;;0.00;0.00;;;;;;;;;;10417974;28;20057;-61
2021/09/20 16:17:30;;;;;;;0.10;0.10;;;;;;;;;;10416728;28;20045;-62
2021/09/20 16:22:34;;;;;;;0.00;0.00;;;;;;;;;;10433683;28;20557;-62
2021/09/20 16:27:37;;;;;;;0.00;0.00;;;;;;;;;;10424275;28;20041;-62
2021/09/20 16:32:41;;;;;;;0.00;0.00;;;;;;;;;;10414040;28;20073;-62
2021/09/20 16:37:47;;;;;;;0.03;0.03;;;;;;;;;;10424297;28;20051;-62
2021/09/20 16:42:50;;;;;;;0.00;0.00;;;;;;;;;;10413171;28;20054;-64
2021/09/20 16:47:53;;;;;;;0.00;0.00;;;;;;;;;;10419893;28;20041;-62
2021/09/20 16:52:57;;;;;;;0.00;0.00;;;;;;;;;;10429319;28;20131;-63
2021/09/20 16:58:00;;;;;;;0.00;0.00;;;;;;;;;;10420927;28;20048;-65
2021/09/20 17:03:06;;;;;;;0.00;0.00;;;;;;;;;;10421060;28;20064;-66
2021/09/20 17:08:11;;;;;;;0.00;0.00;;;;;;;;;;10419913;28;20076;-62
2021/09/20 17:13:14;;;;;;;0.00;0.00;;;;;;;;;;10431287;28;20067;-64
2021/09/20 17:18:19;;;;;;;0.10;0.10;;;;;;;;;;10424838;28;20033;-63
2021/09/20 17:23:23;;;;;;;0.10;0.10;;;;;;;;;;10424660;28;20049;-63
2021/09/20 17:28:26;;;;;;;0.00;0.00;;;;;;;;;;10427961;28;20483;-65
2021/09/20 17:33:29;;;;;;;0.00;0.00;;;;;;;;;;10430501;28;20151;-64
2021/09/20 17:38:33;;;;;;;0.10;0.10;;;;;;;;;;10431427;28;20043;-63
2021/09/20 17:43:36;;;;;;;0.03;0.03;;;;;;;;;;10434393;28;20536;-64
2021/09/20 17:48:39;;;;;;;0.10;0.10;;;;;;;;;;10412525;28;20399;-64
2021/09/20 17:53:43;;;;;;;0.00;0.00;;;;;;;;;;10417887;28;20045;-64
2021/09/20 17:58:46;;;;;;;0.00;0.00;;;;;;;;;;10413142;28;20041;-63
2021/09/20 18:03:49;;;;;;;0.20;0.00;;;;;;;;;;10431241;28;20051;-61
2021/09/20 18:08:54;;;;;;;0.03;0.03;;;;;;;;;;10425882;28;20087;-62
2021/09/20 18:13:57;;;;;;;0.00;0.00;;;;;;;;;;10423274;28;20051;-62
2021/09/20 18:19:00;;;;;;;0.00;0.00;;;;;;;;;;10413451;28;20049;-64
2021/09/20 18:24:21;;;;;;;0.10;0.10;;;;;;;;;;10434863;28;20040;-62
2021/09/20 18:29:27;;;;;;;0.00;0.00;;;;;;;;;;10431958;28;20538;-60
2021/09/20 18:34:30;;;;;;;0.10;0.10;;;;;;;;;;10434663;28;20069;-61
2021/09/20 18:39:34;;;;;;;0.10;0.10;;;;;;;;;;10429362;28;20497;-63
2021/09/20 18:44:38;;;;;;;0.00;0.00;;;;;;;;;;10419150;28;20094;-61
2021/09/20 18:49:42;;;;;;;0.28;0.10;;;;;;;;;;10429850;28;20110;-62
2021/09/20 18:54:46;;;;;;;0.00;0.00;;;;;;;;;;10432720;28;20049;-65
2021/09/20 18:59:50;;;;;;;0.00;0.00;;;;;;;;;;10427447;28;20043;-61
2021/09/20 19:04:53;;;;;;;0.00;0.00;;;;;;;;;;10426275;28;20063;-62
2021/09/20 19:09:57;;;;;;;0.10;0.10;;;;;;;;;;10429313;28;20136;-61
2021/09/20 19:15:00;;;;;;;0.10;0.10;;;;;;;;;;10427944;28;20143;-62
2021/09/20 19:20:05;;;;;;;0.10;0.10;;;;;;;;;;10429309;28;20119;-64
2021/09/20 19:25:11;;;;;;;0.10;0.10;;;;;;;;;;10425631;28;20126;-63
2021/09/20 19:30:14;;;;;;;0.10;0.10;;;;;;;;;;10418446;28;20140;-65
2021/09/20 19:35:18;;;;;;;0.40;0.10;;;;;;;;;;10429975;28;20047;-64
2021/09/20 19:40:22;;;;;;;0.00;0.00;;;;;;;;;;10427481;28;20037;-64
2021/09/20 19:45:25;;;;;;;0.00;0.00;;;;;;;;;;10425846;28;20056;-63
2021/09/20 19:50:28;;;;;;;0.10;0.10;;;;;;;;;;10429687;28;20380;-63
2021/09/20 19:55:34;;;;;;;0.10;0.10;;;;;;;;;;10427651;28;20148;-64
2021/09/20 20:00:40;;;;;;;0.00;0.00;;;;;;;;;;10420593;28;20033;-64
2021/09/20 20:05:44;;;;;;;0.10;0.10;;;;;;;;;;10427968;28;20387;-62
2021/09/20 20:10:49;;;;;;;0.10;0.10;;;;;;;;;;10422605;28;20059;-63
2021/09/20 20:15:52;;;;;;;0.00;0.00;;;;;;;;;;10421794;28;20037;-67
2021/09/20 20:20:56;;;;;;;0.10;0.10;;;;;;;;;;10424373;28;20526;-64
2021/09/20 20:26:04;;;;;;;0.08;0.08;;;;;;;;;;10432036;28;20495;-63
2021/09/20 20:31:07;;;;;;;0.00;0.00;;;;;;;;;;10428447;28;20036;-64
2021/09/20 20:36:12;;;;;;;0.10;0.10;;;;;;;;;;10432997;28;20033;-63
2021/09/20 20:41:16;;;;;;;0.08;0.08;;;;;;;;;;10431888;28;20292;-64
2021/09/20 20:46:19;;;;;;;0.00;0.00;;;;;;;;;;10429871;28;20047;-64
2021/09/20 20:51:22;;;;;;;0.00;0.00;;;;;;;;;;10439353;28;20076;-64
2021/09/20 20:56:26;;;;;;;0.00;0.00;;;;;;;;;;10434029;28;20057;-64
2021/09/20 21:01:29;;;;;;;0.00;0.00;;;;;;;;;;10420887;28;20510;-64
2021/09/20 21:06:32;;;;;;;0.00;0.00;;;;;;;;;;10432760;28;20486;-64
2021/09/20 21:11:36;;;;;;;0.05;0.05;;;;;;;;;;10412867;28;20055;-63
2021/09/20 21:16:39;;;;;;;0.10;0.10;;;;;;;;;;10432840;28;20492;-64
2021/09/20 21:21:42;;;;;;;0.05;0.05;;;;;;;;;;10417370;28;20049;-62
2021/09/20 21:26:46;;;;;;;0.10;0.10;;;;;;;;;;10433011;28;20056;-63
2021/09/20 21:31:50;;;;;;;0.00;0.00;;;;;;;;;;10432638;28;20051;-63
2021/09/20 21:36:53;;;;;;;0.00;0.00;;;;;;;;;;10431796;28;20049;-62
2021/09/20 21:41:57;;;;;;;0.00;0.00;;;;;;;;;;10430421;28;20052;-63
2021/09/20 21:47:01;;;;;;;0.03;0.03;;;;;;;;;;10430069;28;20055;-64
2021/09/20 21:52:04;;;;;;;0.10;0.10;;;;;;;;;;10415711;28;20047;-64
2021/09/20 21:57:08;;;;;;;0.00;0.00;;;;;;;;;;10429521;28;20041;-64
2021/09/20 22:02:11;;;;;;;0.30;0.10;;;;;;;;;;10433602;28;20041;-62
2021/09/20 22:07:14;;;;;;;0.00;0.00;;;;;;;;;;10428010;28;20037;-62
2021/09/20 22:12:18;;;;;;;0.10;0.10;;;;;;;;;;10414376;28;20053;-65
2021/09/20 22:17:21;;;;;;;0.00;0.00;;;;;;;;;;10423259;28;20052;-64
2021/09/20 22:22:23;;;;;;;0.10;0.10;;;;;;;;;;10435641;28;20051;-63
2021/09/20 22:27:28;;;;;;;0.00;0.00;;;;;;;;;;10425986;28;20049;-63
2021/09/20 22:32:30;;;;;;;0.15;0.10;;;;;;;;;;10434992;28;20055;-64
2021/09/20 22:37:33;;;;;;;0.08;0.08;;;;;;;;;;10424442;28;20045;-64
2021/09/20 22:42:58;;;;;;;0.00;0.00;;;;;;;;;;10417723;28;20049;-65
2021/09/20 22:48:01;;;;;;;0.10;0.10;;;;;;;;;;10433243;28;20041;-64
2021/09/20 22:53:04;;;;;;;0.00;0.00;;;;;;;;;;10434183;28;20044;-64
2021/09/20 22:58:08;;;;;;;0.08;0.08;;;;;;;;;;10420520;28;20035;-64
2021/09/20 23:03:11;;;;;;;0.10;0.10;;;;;;;;;;10420474;28;20049;-63
2021/09/20 23:08:14;;;;;;;0.00;0.00;;;;;;;;;;10418419;28;20033;-64
2021/09/20 23:13:18;;;;;;;0.10;0.10;;;;;;;;;;10419427;28;20111;-64
2021/09/20 23:18:21;;;;;;;0.00;0.00;;;;;;;;;;10432218;28;20064;-64
2021/09/20 23:23:23;;;;;;;0.10;0.10;;;;;;;;;;10432812;28;20045;-64
2021/09/20 23:28:28;;;;;;;0.10;0.10;;;;;;;;;;10416376;28;20135;-64
2021/09/20 23:33:30;;;;;;;0.05;0.05;;;;;;;;;;10423189;28;20048;-63
2021/09/20 23:38:33;;;;;;;0.00;0.00;;;;;;;;;;10414249;28;20046;-63
2021/09/20 23:43:37;;;;;;;0.10;0.10;;;;;;;;;;10413183;28;20064;-63
2021/09/20 23:48:40;;;;;;;0.10;0.10;;;;;;;;;;10430179;28;20819;-63
2021/09/20 23:53:43;;;;;;;0.00;0.00;;;;;;;;;;10433058;28;20052;-64
2021/09/20 23:58:47;;;;;;;0.10;0.10;;;;;;;;;;10414357;28;20046;-63
